createdAt,value
2023-04-04T00:00:16.536Z,26.59
2023-04-04T00:01:16.564Z,26.59
2023-04-04T00:02:16.688Z,26.61
2023-04-04T00:03:16.752Z,26.59
2023-04-04T00:04:16.684Z,26.59
2023-04-04T00:05:16.715Z,26.61
2023-04-04T00:06:16.738Z,26.61
2023-04-04T00:07:16.762Z,26.59
2023-04-04T00:08:16.832Z,26.59
2023-04-04T00:09:16.863Z,26.58
2023-04-04T00:10:16.934Z,26.59
2023-04-04T00:11:16.966Z,26.59
2023-04-04T00:12:16.989Z,26.58
2023-04-04T00:13:17.040Z,26.59
2023-04-04T00:14:17.058Z,26.61
2023-04-04T00:15:17.098Z,26.58
2023-04-04T00:16:17.159Z,26.61
2023-04-04T00:17:17.221Z,26.59
2023-04-04T00:18:17.314Z,26.58
2023-04-04T00:19:17.291Z,26.58
2023-04-04T00:20:17.346Z,26.59
2023-04-04T00:21:17.369Z,26.58
2023-04-04T00:22:17.410Z,26.58
2023-04-04T00:23:17.445Z,26.59
2023-04-04T00:24:17.465Z,26.59
2023-04-04T00:25:17.507Z,26.56
2023-04-04T00:26:17.538Z,26.58
2023-04-04T00:27:17.568Z,26.58
2023-04-04T00:28:17.615Z,26.59
2023-04-04T00:29:17.661Z,26.56
2023-04-04T00:30:17.675Z,26.58
2023-04-04T00:31:17.776Z,26.58
2023-04-04T00:32:17.810Z,26.56
2023-04-04T00:33:17.826Z,26.56
2023-04-04T00:34:17.781Z,26.59
2023-04-04T00:35:17.852Z,26.59
2023-04-04T00:36:17.855Z,26.56
2023-04-04T00:37:17.909Z,26.58
2023-04-04T00:38:17.939Z,26.59
2023-04-04T00:39:17.967Z,26.56
2023-04-04T00:40:17.990Z,26.54
2023-04-04T00:41:18.071Z,26.56
2023-04-04T00:42:18.156Z,26.58
2023-04-04T00:43:18.125Z,26.56
2023-04-04T00:44:18.152Z,26.56
2023-04-04T00:45:18.243Z,26.55
2023-04-04T00:46:18.239Z,26.55
2023-04-04T00:47:18.268Z,26.54
2023-04-04T00:48:18.316Z,26.56
2023-04-04T00:49:18.377Z,26.55
2023-04-04T00:50:18.390Z,26.59
2023-04-04T00:51:18.440Z,26.56
2023-04-04T00:52:18.510Z,26.55
2023-04-04T00:53:18.502Z,26.55
2023-04-04T00:54:18.532Z,26.54
2023-04-04T00:55:18.561Z,26.55
2023-04-04T00:56:18.621Z,26.55
2023-04-04T00:57:18.604Z,26.55
2023-04-04T00:58:18.642Z,26.56
2023-04-04T00:59:18.760Z,26.56
2023-04-04T01:00:18.729Z,26.58
2023-04-04T01:01:18.819Z,26.55
2023-04-04T01:02:18.833Z,26.54
2023-04-04T01:03:18.867Z,26.55
2023-04-04T01:04:19.022Z,26.55
2023-04-04T01:05:18.944Z,26.54
2023-04-04T01:06:18.963Z,26.54
2023-04-04T01:07:18.987Z,26.54
2023-04-04T01:08:19.037Z,26.54
2023-04-04T01:09:19.071Z,26.55
2023-04-04T01:10:19.095Z,26.54
2023-04-04T01:11:19.170Z,26.54
2023-04-04T01:12:19.177Z,26.52
2023-04-04T01:13:19.228Z,26.52
2023-04-04T01:14:19.296Z,26.52
2023-04-04T01:15:19.321Z,26.54
2023-04-04T01:16:19.380Z,26.54
2023-04-04T01:17:19.376Z,26.52
2023-04-04T01:18:19.423Z,26.52
2023-04-04T01:19:19.442Z,26.51
2023-04-04T01:20:19.475Z,26.51
2023-04-04T01:21:19.522Z,26.49
2023-04-04T01:22:19.531Z,26.49
2023-04-04T01:23:19.593Z,26.51
2023-04-04T01:24:19.639Z,26.51
2023-04-04T01:25:19.680Z,26.52
2023-04-04T01:26:19.720Z,26.52
2023-04-04T01:27:19.781Z,26.51
2023-04-04T01:28:19.832Z,26.49
2023-04-04T01:29:19.891Z,26.52
2023-04-04T01:30:19.908Z,26.54
2023-04-04T01:31:20.040Z,26.49
2023-04-04T01:32:20.024Z,26.52
2023-04-04T01:33:20.065Z,26.51
2023-04-04T01:34:20.118Z,26.49
2023-04-04T01:35:20.193Z,26.51
2023-04-04T01:36:20.227Z,26.49
2023-04-04T01:37:20.240Z,26.49
2023-04-04T01:38:20.268Z,26.49
2023-04-04T01:39:20.326Z,26.52
2023-04-04T01:40:20.337Z,26.49
2023-04-04T01:41:20.397Z,26.49
2023-04-04T01:42:20.390Z,26.49
2023-04-04T01:43:20.433Z,26.51
2023-04-04T01:44:20.486Z,26.49
2023-04-04T01:45:20.514Z,26.49
2023-04-04T01:46:20.592Z,26.48
2023-04-04T01:47:20.621Z,26.49
2023-04-04T01:48:20.627Z,26.48
2023-04-04T01:49:20.679Z,26.48
2023-04-04T01:50:20.715Z,26.47
2023-04-04T01:51:20.758Z,26.49
2023-04-04T01:52:20.785Z,26.48
2023-04-04T01:53:20.800Z,26.47
2023-04-04T01:54:20.868Z,26.45
2023-04-04T01:55:20.861Z,26.45
2023-04-04T01:56:20.915Z,26.48
2023-04-04T01:57:20.963Z,26.48
2023-04-04T01:58:20.984Z,26.47
2023-04-04T01:59:21.073Z,26.45
2023-04-04T02:00:21.071Z,26.45
2023-04-04T02:01:21.243Z,26.48
2023-04-04T02:02:21.175Z,26.47
2023-04-04T02:03:21.245Z,26.45
2023-04-04T02:04:21.299Z,26.45
2023-04-04T02:05:21.288Z,26.48
2023-04-04T02:06:21.331Z,26.49
2023-04-04T02:07:21.388Z,26.48
2023-04-04T02:08:21.432Z,26.47
2023-04-04T02:09:21.443Z,26.47
2023-04-04T02:10:21.499Z,26.45
2023-04-04T02:11:21.521Z,26.47
2023-04-04T02:12:21.564Z,26.47
2023-04-04T02:13:21.594Z,26.45
2023-04-04T02:14:21.648Z,26.47
2023-04-04T02:15:21.667Z,26.45
2023-04-04T02:16:21.741Z,26.45
2023-04-04T02:17:21.761Z,26.47
2023-04-04T02:18:21.760Z,26.47
2023-04-04T02:19:21.792Z,26.48
2023-04-04T02:20:21.799Z,26.45
2023-04-04T02:21:21.839Z,26.45
2023-04-04T02:22:21.891Z,26.45
2023-04-04T02:23:21.915Z,26.45
2023-04-04T02:24:21.954Z,26.45
2023-04-04T02:25:21.984Z,26.47
2023-04-04T02:26:21.997Z,26.45
2023-04-04T02:27:21.994Z,26.44
2023-04-04T02:28:22.015Z,26.47
2023-04-04T02:29:22.059Z,26.44
2023-04-04T02:30:22.080Z,26.42
2023-04-04T02:31:22.164Z,26.44
2023-04-04T02:32:22.171Z,26.40
2023-04-04T02:33:22.239Z,26.41
2023-04-04T02:34:22.232Z,26.45
2023-04-04T02:35:22.306Z,26.45
2023-04-04T02:36:22.325Z,26.41
2023-04-04T02:37:22.320Z,26.42
2023-04-04T02:38:22.356Z,26.40
2023-04-04T02:39:22.369Z,26.42
2023-04-04T02:40:22.414Z,26.41
2023-04-04T02:41:22.440Z,26.42
2023-04-04T02:42:22.465Z,26.41
2023-04-04T02:43:22.501Z,26.41
2023-04-04T02:44:22.522Z,26.41
2023-04-04T02:45:22.574Z,26.40
2023-04-04T02:46:22.563Z,26.40
2023-04-04T02:47:22.579Z,26.40
2023-04-04T02:48:22.595Z,26.40
2023-04-04T02:49:22.623Z,26.41
2023-04-04T02:50:22.681Z,26.40
2023-04-04T02:51:22.675Z,26.42
2023-04-04T02:52:22.697Z,26.40
2023-04-04T02:53:22.704Z,26.41
2023-04-04T02:54:22.731Z,26.40
2023-04-04T02:55:22.784Z,26.40
2023-04-04T02:56:22.844Z,26.41
2023-04-04T02:57:22.874Z,26.40
2023-04-04T02:58:22.915Z,26.40
2023-04-04T02:59:23.023Z,26.40
2023-04-04T03:00:22.989Z,26.40
2023-04-04T03:01:23.092Z,26.38
2023-04-04T03:02:23.150Z,26.40
2023-04-04T03:03:23.286Z,26.38
2023-04-04T03:04:23.145Z,26.40
2023-04-04T03:05:23.187Z,26.37
2023-04-04T03:06:23.236Z,26.40
2023-04-04T03:07:23.269Z,26.37
2023-04-04T03:08:23.286Z,26.37
2023-04-04T03:09:23.308Z,26.40
2023-04-04T03:10:23.326Z,26.37
2023-04-04T03:11:23.345Z,26.35
2023-04-04T03:12:23.351Z,26.38
2023-04-04T03:13:23.359Z,26.38
2023-04-04T03:14:23.357Z,26.37
2023-04-04T03:15:23.407Z,26.37
2023-04-04T03:16:23.453Z,26.34
2023-04-04T03:17:23.478Z,26.37
2023-04-04T03:18:23.433Z,26.37
2023-04-04T03:19:23.488Z,26.37
2023-04-04T03:20:23.529Z,26.38
2023-04-04T03:21:23.561Z,26.35
2023-04-04T03:22:23.576Z,26.38
2023-04-04T03:23:23.631Z,26.38
2023-04-04T03:24:23.629Z,26.38
2023-04-04T03:25:23.669Z,26.37
2023-04-04T03:26:23.728Z,26.37
2023-04-04T03:27:23.748Z,26.34
2023-04-04T03:28:23.773Z,26.37
2023-04-04T03:29:23.825Z,26.37
2023-04-04T03:30:23.813Z,26.34
2023-04-04T03:31:23.888Z,26.37
2023-04-04T03:32:23.857Z,26.34
2023-04-04T03:33:23.849Z,26.34
2023-04-04T03:34:23.894Z,26.32
2023-04-04T03:35:23.960Z,26.34
2023-04-04T03:36:23.966Z,26.32
2023-04-04T03:37:23.987Z,26.34
2023-04-04T03:38:24.035Z,26.34
2023-04-04T03:39:24.097Z,26.31
2023-04-04T03:40:24.063Z,26.34
2023-04-04T03:41:24.069Z,26.32
2023-04-04T03:42:24.089Z,26.34
2023-04-04T03:43:24.103Z,26.35
2023-04-04T03:44:24.124Z,26.34
2023-04-04T03:45:24.133Z,26.35
2023-04-04T03:46:24.214Z,26.34
2023-04-04T03:47:24.158Z,26.32
2023-04-04T03:48:24.174Z,26.35
2023-04-04T03:49:24.171Z,26.31
2023-04-04T03:50:24.188Z,26.31
2023-04-04T03:51:24.204Z,26.32
2023-04-04T03:52:24.241Z,26.31
2023-04-04T03:53:24.233Z,26.32
2023-04-04T03:54:24.236Z,26.31
2023-04-04T03:55:24.263Z,26.32
2023-04-04T03:56:24.288Z,26.34
2023-04-04T03:57:24.276Z,26.30
2023-04-04T03:58:24.334Z,26.30
2023-04-04T03:59:24.447Z,26.32
2023-04-04T04:00:24.341Z,26.32
2023-04-04T04:01:24.392Z,26.31
2023-04-04T04:02:24.451Z,26.28
2023-04-04T04:03:24.699Z,26.32
2023-04-04T04:04:24.557Z,26.31
2023-04-04T04:05:24.497Z,26.32
2023-04-04T04:06:24.503Z,26.32
2023-04-04T04:07:24.514Z,26.28
2023-04-04T04:08:25.363Z,26.30
2023-04-04T04:09:24.553Z,26.28
2023-04-04T04:10:24.563Z,26.31
2023-04-04T04:11:24.575Z,26.28
2023-04-04T04:12:24.605Z,26.30
2023-04-04T04:13:24.617Z,26.28
2023-04-04T04:14:24.650Z,26.28
2023-04-04T04:15:24.708Z,26.28
2023-04-04T04:16:24.779Z,26.27
2023-04-04T04:17:24.752Z,26.30
2023-04-04T04:18:25.452Z,26.28
2023-04-04T04:19:24.751Z,26.27
2023-04-04T04:20:24.767Z,26.26
2023-04-04T04:21:24.771Z,26.26
2023-04-04T04:22:24.778Z,26.27
2023-04-04T04:23:24.771Z,26.28
2023-04-04T04:24:24.818Z,26.27
2023-04-04T04:25:24.799Z,26.28
2023-04-04T04:26:24.816Z,26.27
2023-04-04T04:27:24.849Z,26.27
2023-04-04T04:28:33.302Z,26.28
2023-04-04T04:29:25.869Z,26.27
2023-04-04T04:30:24.829Z,26.24
2023-04-04T04:31:24.852Z,26.27
2023-04-04T04:32:24.843Z,26.24
2023-04-04T04:33:24.818Z,26.26
2023-04-04T04:34:24.813Z,26.24
2023-04-04T04:35:24.794Z,26.27
2023-04-04T04:36:24.848Z,26.24
2023-04-04T04:37:24.790Z,26.26
2023-04-04T04:38:24.790Z,26.24
2023-04-04T04:39:24.797Z,26.23
2023-04-04T04:40:24.762Z,26.21
2023-04-04T04:41:24.784Z,26.26
2023-04-04T04:42:24.765Z,26.23
2023-04-04T04:43:24.754Z,26.23
2023-04-04T04:44:24.730Z,26.24
2023-04-04T04:45:24.728Z,26.23
2023-04-04T04:46:24.793Z,26.26
2023-04-04T04:47:24.744Z,26.26
2023-04-04T04:48:24.720Z,26.23
2023-04-04T04:49:24.739Z,26.24
2023-04-04T04:50:24.716Z,26.26
2023-04-04T04:51:24.745Z,26.24
2023-04-04T04:52:24.736Z,26.26
2023-04-04T04:53:24.747Z,26.23
2023-04-04T04:54:24.770Z,26.24
2023-04-04T04:55:24.798Z,26.23
2023-04-04T04:56:24.827Z,26.23
2023-04-04T04:57:24.865Z,26.26
2023-04-04T04:58:26.352Z,26.26
2023-04-04T04:59:24.895Z,26.28
2023-04-04T05:00:24.875Z,26.26
2023-04-04T05:01:24.874Z,26.28
2023-04-04T05:02:24.896Z,26.27
2023-04-04T05:03:24.866Z,26.28
2023-04-04T05:04:24.838Z,26.30
2023-04-04T05:05:24.829Z,26.28
2023-04-04T05:06:24.806Z,26.30
2023-04-04T05:07:24.830Z,26.31
2023-04-04T05:08:24.787Z,26.31
2023-04-04T05:09:24.788Z,26.32
2023-04-04T05:10:24.795Z,26.34
2023-04-04T05:11:24.767Z,26.35
2023-04-04T05:12:24.757Z,26.34
2023-04-04T05:13:24.746Z,26.35
2023-04-04T05:14:24.749Z,26.37
2023-04-04T05:15:24.741Z,26.38
2023-04-04T05:16:24.770Z,26.38
2023-04-04T05:17:24.741Z,26.40
2023-04-04T05:18:24.719Z,26.40
2023-04-04T05:19:24.775Z,26.42
2023-04-04T05:20:24.706Z,26.41
2023-04-04T05:21:24.705Z,26.42
2023-04-04T05:22:24.699Z,26.42
2023-04-04T05:23:24.682Z,26.45
2023-04-04T05:24:24.679Z,26.47
2023-04-04T05:25:24.683Z,26.47
2023-04-04T05:26:24.658Z,26.47
2023-04-04T05:27:24.644Z,26.47
2023-04-04T05:28:24.647Z,26.48
2023-04-04T05:29:24.644Z,26.47
2023-04-04T05:30:24.639Z,26.49
2023-04-04T05:31:24.668Z,26.52
2023-04-04T05:32:24.711Z,26.51
2023-04-04T05:33:24.611Z,26.52
2023-04-04T05:34:24.595Z,26.52
2023-04-04T05:35:24.643Z,26.54
2023-04-04T05:36:24.713Z,26.54
2023-04-04T05:37:24.603Z,26.54
2023-04-04T05:38:24.568Z,26.54
2023-04-04T05:39:24.575Z,26.56
2023-04-04T05:40:24.591Z,26.55
2023-04-04T05:41:24.578Z,26.56
2023-04-04T05:42:24.561Z,26.58
2023-04-04T05:43:24.553Z,26.61
2023-04-04T05:44:24.547Z,26.58
2023-04-04T05:45:24.522Z,26.62
2023-04-04T05:46:24.552Z,26.63
2023-04-04T05:47:24.521Z,26.61
2023-04-04T05:48:24.498Z,26.62
2023-04-04T05:49:24.512Z,26.63
2023-04-04T05:50:24.505Z,26.62
2023-04-04T05:51:24.496Z,26.63
2023-04-04T05:52:24.473Z,26.63
2023-04-04T05:53:24.474Z,26.68
2023-04-04T05:54:24.460Z,26.68
2023-04-04T05:55:24.477Z,26.71
2023-04-04T05:56:24.452Z,26.71
2023-04-04T05:57:25.344Z,26.72
2023-04-04T05:58:24.446Z,26.72
2023-04-04T05:59:24.500Z,26.75
2023-04-04T06:00:24.422Z,26.78
2023-04-04T06:01:24.419Z,26.83
2023-04-04T06:02:24.429Z,26.85
2023-04-04T06:03:24.496Z,26.90
2023-04-04T06:04:24.434Z,26.92
2023-04-04T06:05:24.470Z,26.95
2023-04-04T06:06:24.553Z,26.98
2023-04-04T06:07:24.494Z,27.03
2023-04-04T06:08:24.541Z,27.05
2023-04-04T06:09:24.589Z,27.09
2023-04-04T06:10:24.652Z,27.11
2023-04-04T06:11:24.715Z,27.14
2023-04-04T06:12:24.709Z,27.17
2023-04-04T06:13:24.738Z,27.19
2023-04-04T06:14:24.722Z,27.27
2023-04-04T06:15:24.779Z,27.29
2023-04-04T06:16:24.864Z,27.33
2023-04-04T06:17:24.974Z,27.39
2023-04-04T06:18:24.885Z,27.41
2023-04-04T06:19:24.932Z,27.46
2023-04-04T06:20:24.959Z,27.50
2023-04-04T06:21:24.964Z,27.53
2023-04-04T06:22:24.981Z,27.57
2023-04-04T06:23:24.988Z,27.61
2023-04-04T06:24:25.019Z,27.65
2023-04-04T06:25:25.016Z,27.71
2023-04-04T06:26:25.089Z,27.74
2023-04-04T06:27:25.145Z,27.77
2023-04-04T06:28:25.359Z,27.84
2023-04-04T06:29:25.224Z,27.87
2023-04-04T06:30:25.276Z,27.92
2023-04-04T06:31:25.350Z,27.98
2023-04-04T06:32:25.409Z,28.01
2023-04-04T06:33:25.396Z,28.05
2023-04-04T06:34:25.466Z,28.08
2023-04-04T06:35:25.485Z,28.12
2023-04-04T06:36:25.545Z,28.16
2023-04-04T06:37:25.530Z,28.19
2023-04-04T06:38:25.573Z,28.23
2023-04-04T06:39:25.628Z,28.26
2023-04-04T06:40:25.669Z,28.28
2023-04-04T06:41:25.697Z,28.32
2023-04-04T06:42:25.760Z,28.36
2023-04-04T06:43:25.799Z,28.42
2023-04-04T06:44:25.820Z,28.43
2023-04-04T06:45:25.827Z,28.43
2023-04-04T06:46:25.865Z,28.42
2023-04-04T06:47:25.926Z,28.49
2023-04-04T06:48:25.873Z,28.46
2023-04-04T06:49:25.891Z,28.50
2023-04-04T06:50:25.962Z,28.49
2023-04-04T06:51:25.966Z,28.53
2023-04-04T06:52:25.996Z,28.52
2023-04-04T06:53:26.031Z,28.56
2023-04-04T06:54:26.037Z,28.63
2023-04-04T06:55:26.095Z,28.69
2023-04-04T06:56:26.121Z,28.70
2023-04-04T06:57:26.167Z,28.70
2023-04-04T06:58:26.205Z,28.70
2023-04-04T06:59:26.256Z,28.66
2023-04-04T07:00:26.266Z,28.66
2023-04-04T07:01:26.366Z,28.62
2023-04-04T07:02:26.348Z,28.74
2023-04-04T07:03:26.324Z,28.74
2023-04-04T07:04:26.352Z,28.71
2023-04-04T07:05:26.406Z,28.76
2023-04-04T07:06:26.452Z,28.73
2023-04-04T07:07:26.453Z,28.76
2023-04-04T07:08:27.475Z,28.79
2023-04-04T07:09:29.557Z,28.81
2023-04-04T07:10:26.551Z,28.80
2023-04-04T07:11:26.545Z,28.83
2023-04-04T07:12:26.537Z,28.83
2023-04-04T07:13:26.516Z,28.86
2023-04-04T07:14:26.506Z,28.80
2023-04-04T07:15:26.497Z,28.81
2023-04-04T07:16:26.536Z,28.83
2023-04-04T07:17:26.563Z,28.89
2023-04-04T07:18:26.487Z,28.83
2023-04-04T07:19:26.471Z,28.84
2023-04-04T07:20:26.486Z,28.89
2023-04-04T07:21:26.484Z,28.91
2023-04-04T07:22:26.453Z,29.00
2023-04-04T07:23:26.451Z,28.98
2023-04-04T07:24:26.438Z,28.98
2023-04-04T07:25:26.814Z,28.98
2023-04-04T07:26:26.439Z,28.98
2023-04-04T07:27:26.443Z,28.98
2023-04-04T07:28:26.428Z,28.97
2023-04-04T07:29:26.425Z,29.04
2023-04-04T07:30:26.401Z,29.00
2023-04-04T07:31:26.455Z,28.97
2023-04-04T07:32:26.444Z,29.01
2023-04-04T07:33:26.404Z,28.97
2023-04-04T07:34:26.377Z,29.01
2023-04-04T07:35:26.364Z,29.06
2023-04-04T07:36:26.350Z,29.13
2023-04-04T07:37:26.344Z,29.11
2023-04-04T07:38:26.347Z,29.14
2023-04-04T07:39:26.334Z,29.14
2023-04-04T07:40:26.343Z,29.16
2023-04-04T07:41:26.353Z,29.21
2023-04-04T07:42:26.326Z,29.20
2023-04-04T07:43:26.310Z,29.20
2023-04-04T07:44:26.291Z,29.28
2023-04-04T07:45:26.307Z,29.18
2023-04-04T07:46:26.322Z,29.18
2023-04-04T07:47:26.329Z,29.17
2023-04-04T07:48:26.275Z,29.03
2023-04-04T07:49:26.260Z,28.91
2023-04-04T07:50:26.283Z,28.93
2023-04-04T07:51:26.249Z,28.91
2023-04-04T07:52:26.239Z,28.89
2023-04-04T07:53:26.242Z,28.91
2023-04-04T07:54:26.256Z,28.86
2023-04-04T07:55:26.246Z,28.81
2023-04-04T07:56:26.247Z,28.84
2023-04-04T07:57:26.206Z,28.83
2023-04-04T07:58:26.214Z,28.84
2023-04-04T07:59:26.299Z,28.86
2023-04-04T08:00:26.175Z,28.79
2023-04-04T08:01:26.190Z,28.86
2023-04-04T08:02:26.238Z,28.80
2023-04-04T08:03:26.337Z,28.74
2023-04-04T08:04:26.236Z,28.76
2023-04-04T08:05:26.216Z,28.76
2023-04-04T08:06:26.259Z,28.73
2023-04-04T08:07:27.581Z,28.77
2023-04-04T08:08:26.522Z,28.71
2023-04-04T08:09:26.296Z,28.73
2023-04-04T08:10:26.280Z,28.74
2023-04-04T08:11:26.298Z,28.74
2023-04-04T08:12:26.284Z,28.73
2023-04-04T08:13:26.246Z,28.77
2023-04-04T08:14:26.250Z,28.70
2023-04-04T08:15:26.255Z,28.71
2023-04-04T08:16:26.331Z,28.71
2023-04-04T08:17:26.246Z,28.70
2023-04-04T08:18:26.217Z,28.70
2023-04-04T08:19:26.222Z,28.69
2023-04-04T08:20:26.194Z,28.67
2023-04-04T08:21:26.204Z,28.66
2023-04-04T08:22:26.178Z,28.66
2023-04-04T08:23:26.187Z,28.66
2023-04-04T08:24:28.117Z,28.62
2023-04-04T08:25:26.165Z,28.60
2023-04-04T08:26:26.164Z,28.60
2023-04-04T08:27:26.141Z,28.60
2023-04-04T08:28:26.271Z,28.58
2023-04-04T08:29:26.158Z,28.58
2023-04-04T08:30:26.114Z,28.56
2023-04-04T08:31:26.114Z,28.55
2023-04-04T08:32:26.129Z,28.55
2023-04-04T08:33:37.199Z,28.53
2023-04-04T08:34:27.163Z,28.52
2023-04-04T08:35:26.175Z,28.52
2023-04-04T08:36:26.152Z,28.49
2023-04-04T08:37:26.121Z,28.52
2023-04-04T08:38:26.111Z,28.46
2023-04-04T08:39:26.110Z,28.48
2023-04-04T08:40:26.111Z,28.49
2023-04-04T08:41:26.107Z,28.46
2023-04-04T08:42:26.091Z,28.43
2023-04-04T08:43:26.081Z,28.46
2023-04-04T08:44:26.064Z,28.46
2023-04-04T08:45:26.060Z,28.45
2023-04-04T08:46:26.227Z,28.45
2023-04-04T08:47:26.222Z,28.39
2023-04-04T08:48:26.065Z,28.42
2023-04-04T08:49:26.063Z,28.39
2023-04-04T08:50:26.061Z,28.40
2023-04-04T08:51:26.033Z,28.39
2023-04-04T08:52:26.117Z,28.39
2023-04-04T08:53:26.144Z,28.38
2023-04-04T08:54:26.183Z,28.35
2023-04-04T08:55:26.175Z,28.36
2023-04-04T08:56:26.180Z,28.36
2023-04-04T08:57:26.175Z,28.35
2023-04-04T08:58:26.189Z,28.34
2023-04-04T08:59:26.232Z,28.32
2023-04-04T09:00:26.273Z,28.32
2023-04-04T09:01:26.309Z,28.35
2023-04-04T09:02:26.400Z,28.32
2023-04-04T09:03:26.415Z,28.35
2023-04-04T09:04:26.438Z,28.30
2023-04-04T09:05:26.490Z,28.29
2023-04-04T09:06:26.536Z,28.28
2023-04-04T09:07:26.574Z,28.28
2023-04-04T09:08:26.663Z,28.28
2023-04-04T09:09:26.659Z,28.26
2023-04-04T09:10:26.699Z,28.25
2023-04-04T09:11:26.733Z,28.20
2023-04-04T09:12:26.746Z,28.23
2023-04-04T09:13:26.776Z,28.22
2023-04-04T09:14:26.822Z,28.23
2023-04-04T09:15:26.862Z,28.19
2023-04-04T09:16:26.928Z,28.20
2023-04-04T09:17:26.953Z,28.19
2023-04-04T09:18:26.969Z,28.19
2023-04-04T09:19:27.007Z,28.19
2023-04-04T09:20:27.026Z,28.18
2023-04-04T09:21:27.039Z,28.18
2023-04-04T09:22:27.066Z,28.18
2023-04-04T09:23:27.111Z,28.18
2023-04-04T09:24:27.156Z,28.16
2023-04-04T09:25:27.186Z,28.13
2023-04-04T09:26:27.218Z,28.15
2023-04-04T09:27:27.260Z,28.12
2023-04-04T09:28:27.305Z,28.12
2023-04-04T09:29:27.313Z,28.15
2023-04-04T09:30:27.368Z,28.13
2023-04-04T09:31:27.444Z,28.11
2023-04-04T09:32:27.453Z,28.11
2023-04-04T09:33:27.463Z,28.11
2023-04-04T09:34:27.496Z,28.12
2023-04-04T09:35:27.537Z,28.09
2023-04-04T09:36:27.562Z,28.11
2023-04-04T09:37:27.623Z,28.08
2023-04-04T09:38:27.679Z,28.09
2023-04-04T09:39:27.676Z,28.09
2023-04-04T09:40:27.730Z,28.08
2023-04-04T09:41:27.767Z,28.08
2023-04-04T09:42:27.784Z,28.07
2023-04-04T09:43:27.844Z,28.07
2023-04-04T09:44:28.149Z,28.07
2023-04-04T09:45:43.784Z,28.07
2023-04-04T09:46:28.958Z,28.05
2023-04-04T09:47:30.997Z,28.05
2023-04-04T09:48:27.893Z,28.04
2023-04-04T09:49:27.886Z,28.05
2023-04-04T09:50:27.871Z,28.02
2023-04-04T09:51:27.844Z,28.04
2023-04-04T09:52:27.855Z,28.04
2023-04-04T09:53:27.854Z,28.05
2023-04-04T09:54:30.174Z,28.04
2023-04-04T09:55:27.838Z,28.02
2023-04-04T09:56:27.850Z,28.01
2023-04-04T09:57:27.822Z,27.99
2023-04-04T09:58:27.969Z,27.99
2023-04-04T09:59:27.856Z,27.99
2023-04-04T10:00:27.822Z,27.98
2023-04-04T10:01:27.843Z,27.97
2023-04-04T10:02:27.853Z,27.98
2023-04-04T10:03:27.818Z,27.98
2023-04-04T10:04:27.833Z,27.98
2023-04-04T10:05:27.766Z,27.98
2023-04-04T10:06:27.745Z,27.97
2023-04-04T10:07:27.732Z,27.98
2023-04-04T10:08:27.762Z,27.95
2023-04-04T10:09:27.768Z,27.97
2023-04-04T10:10:27.696Z,27.95
2023-04-04T10:11:27.684Z,27.95
2023-04-04T10:12:27.720Z,27.95
2023-04-04T10:13:27.699Z,27.95
2023-04-04T10:14:27.671Z,27.92
2023-04-04T10:15:27.751Z,27.94
2023-04-04T10:16:27.667Z,27.95
2023-04-04T10:17:27.745Z,27.94
2023-04-04T10:18:27.668Z,27.94
2023-04-04T10:19:27.629Z,27.94
2023-04-04T10:20:27.617Z,27.91
2023-04-04T10:21:27.643Z,27.89
2023-04-04T10:22:27.630Z,27.91
2023-04-04T10:23:27.624Z,27.89
2023-04-04T10:24:27.620Z,27.89
2023-04-04T10:25:27.610Z,27.92
2023-04-04T10:26:27.596Z,27.91
2023-04-04T10:27:27.599Z,27.91
2023-04-04T10:28:27.577Z,27.89
2023-04-04T10:29:27.555Z,27.88
2023-04-04T10:30:27.621Z,27.88
2023-04-04T10:31:27.562Z,27.88
2023-04-04T10:32:27.579Z,27.87
2023-04-04T10:33:27.543Z,27.89
2023-04-04T10:34:27.538Z,27.88
2023-04-04T10:35:27.509Z,27.85
2023-04-04T10:36:27.514Z,27.85
2023-04-04T10:37:27.522Z,27.87
2023-04-04T10:38:27.527Z,27.85
2023-04-04T10:39:27.580Z,27.85
2023-04-04T10:40:27.481Z,27.87
2023-04-04T10:41:27.482Z,27.84
2023-04-04T10:42:27.499Z,27.84
2023-04-04T10:43:27.453Z,27.84
2023-04-04T10:44:27.475Z,27.84
2023-04-04T10:45:27.446Z,27.81
2023-04-04T10:46:27.492Z,27.83
2023-04-04T10:47:27.570Z,27.83
2023-04-04T10:48:27.535Z,27.81
2023-04-04T10:49:27.583Z,27.83
2023-04-04T10:50:27.642Z,27.80
2023-04-04T10:51:27.649Z,27.81
2023-04-04T10:52:27.690Z,27.80
2023-04-04T10:53:27.692Z,27.78
2023-04-04T10:54:27.784Z,27.81
2023-04-04T10:55:27.752Z,27.80
2023-04-04T10:56:27.755Z,27.80
2023-04-04T10:57:27.777Z,27.80
2023-04-04T10:58:27.802Z,27.78
2023-04-04T10:59:27.911Z,27.78
2023-04-04T11:00:27.929Z,27.77
2023-04-04T11:01:28.051Z,27.78
2023-04-04T11:02:28.020Z,27.77
2023-04-04T11:03:28.039Z,27.78
2023-04-04T11:04:28.126Z,27.78
2023-04-04T11:05:28.137Z,27.77
2023-04-04T11:06:28.145Z,27.75
2023-04-04T11:07:28.149Z,27.77
2023-04-04T11:08:28.169Z,27.75
2023-04-04T11:09:28.189Z,27.78
2023-04-04T11:10:28.216Z,27.74
2023-04-04T11:11:28.207Z,27.77
2023-04-04T11:12:28.219Z,27.75
2023-04-04T11:13:28.219Z,27.75
2023-04-04T11:14:28.230Z,27.75
2023-04-04T11:15:28.232Z,27.74
2023-04-04T11:16:28.282Z,27.75
2023-04-04T11:17:28.244Z,27.71
2023-04-04T11:18:33.619Z,27.74
2023-04-04T11:19:29.271Z,27.72
2023-04-04T11:20:28.237Z,27.74
2023-04-04T11:21:28.237Z,27.72
2023-04-04T11:22:28.216Z,27.72
2023-04-04T11:23:28.240Z,27.70
2023-04-04T11:24:28.266Z,27.74
2023-04-04T11:25:28.206Z,27.71
2023-04-04T11:26:28.245Z,27.70
2023-04-04T11:27:28.247Z,27.71
2023-04-04T11:28:28.253Z,27.71
2023-04-04T11:29:28.273Z,27.71
2023-04-04T11:30:28.325Z,27.71
2023-04-04T11:31:28.450Z,27.70
2023-04-04T11:32:28.437Z,27.68
2023-04-04T11:33:28.596Z,27.70
2023-04-04T11:34:28.527Z,27.68
2023-04-04T11:35:28.623Z,27.68
2023-04-04T11:36:28.692Z,27.68
2023-04-04T11:37:28.627Z,27.68
2023-04-04T11:38:28.647Z,27.68
2023-04-04T11:39:28.808Z,27.67
2023-04-04T11:40:28.696Z,27.70
2023-04-04T11:41:28.737Z,27.67
2023-04-04T11:42:28.790Z,27.67
2023-04-04T11:43:28.816Z,27.67
2023-04-04T11:44:28.821Z,27.64
2023-04-04T11:45:28.849Z,27.65
2023-04-04T11:46:28.851Z,27.65
2023-04-04T11:47:28.879Z,27.65
2023-04-04T11:48:28.855Z,27.62
2023-04-04T11:49:28.880Z,27.61
2023-04-04T11:50:28.950Z,27.64
2023-04-04T11:51:28.984Z,27.65
2023-04-04T11:52:28.980Z,27.62
2023-04-04T11:53:28.982Z,27.64
2023-04-04T11:54:28.991Z,27.62
2023-04-04T11:55:29.026Z,27.64
2023-04-04T11:56:29.032Z,27.61
2023-04-04T11:57:29.053Z,27.58
2023-04-04T11:58:29.072Z,27.62
2023-04-04T11:59:29.100Z,27.61
2023-04-04T12:00:29.118Z,27.61
2023-04-04T12:01:29.087Z,27.61
2023-04-04T12:02:29.165Z,27.58
2023-04-04T12:03:29.271Z,27.60
2023-04-04T12:04:29.243Z,27.58
2023-04-04T12:05:29.297Z,27.60
2023-04-04T12:06:29.224Z,27.60
2023-04-04T12:07:29.210Z,27.57
2023-04-04T12:08:29.288Z,27.58
2023-04-04T12:09:29.305Z,27.57
2023-04-04T12:10:29.346Z,27.60
2023-04-04T12:11:29.349Z,27.58
2023-04-04T12:12:29.379Z,27.56
2023-04-04T12:13:29.417Z,27.56
2023-04-04T12:14:29.420Z,27.56
2023-04-04T12:15:29.450Z,27.58
2023-04-04T12:16:29.476Z,27.56
2023-04-04T12:17:29.479Z,27.56
2023-04-04T12:18:29.513Z,27.54
2023-04-04T12:19:29.576Z,27.56
2023-04-04T12:20:29.602Z,27.53
2023-04-04T12:21:29.676Z,27.54
2023-04-04T12:22:31.017Z,27.53
2023-04-04T12:23:29.728Z,27.56
2023-04-04T12:24:29.767Z,27.54
2023-04-04T12:25:29.760Z,27.54
2023-04-04T12:26:29.834Z,27.56
2023-04-04T12:27:29.814Z,27.51
2023-04-04T12:28:29.830Z,27.53
2023-04-04T12:29:29.856Z,27.53
2023-04-04T12:30:29.903Z,27.50
2023-04-04T12:31:29.987Z,27.51
2023-04-04T12:32:30.007Z,27.50
2023-04-04T12:33:30.044Z,27.50
2023-04-04T12:35:30.101Z,27.50
2023-04-04T12:36:30.142Z,27.49
2023-04-04T12:37:30.142Z,27.49
2023-04-04T12:38:30.144Z,27.51
2023-04-04T12:39:30.160Z,27.47
2023-04-04T12:40:30.198Z,27.50
2023-04-04T12:41:30.207Z,27.46
2023-04-04T12:42:30.221Z,27.49
2023-04-04T12:43:30.248Z,27.47
2023-04-04T12:44:30.252Z,27.50
2023-04-04T12:45:30.298Z,27.47
2023-04-04T12:46:30.326Z,27.47
2023-04-04T12:47:30.395Z,27.47
2023-04-04T12:48:30.364Z,27.46
2023-04-04T12:49:30.409Z,27.46
2023-04-04T12:50:30.438Z,27.46
2023-04-04T12:51:30.440Z,27.43
2023-04-04T12:52:30.459Z,27.43
2023-04-04T12:53:30.593Z,27.44